sensor_id;sensor_type;location;lat;lon;timestamp;P1;durP1;ratioP1;P2;durP2;ratioP2
35592;SDS011;64447;52.140;5.602;2023-09-18T00:01:27;26.65;;;21.60;;
35592;SDS011;64447;52.140;5.602;2023-09-18T00:03:53;25.20;;;22.42;;
35592;SDS011;64447;52.140;5.602;2023-09-18T00:06:19;26.23;;;22.73;;
35592;SDS011;64447;52.140;5.602;2023-09-18T00:08:44;27.17;;;22.08;;
35592;SDS011;64447;52.140;5.602;2023-09-18T00:14:32;24.27;;;20.95;;
35592;SDS011;64447;52.140;5.602;2023-09-18T00:16:57;22.90;;;20.20;;
35592;SDS011;64447;52.140;5.602;2023-09-18T00:19:23;22.75;;;20.08;;
35592;SDS011;64447;52.140;5.602;2023-09-18T00:21:49;26.85;;;22.73;;
35592;SDS011;64447;52.140;5.602;2023-09-18T00:24:16;24.60;;;21.73;;
35592;SDS011;64447;52.140;5.602;2023-09-18T00:26:42;22.83;;;20.42;;
35592;SDS011;64447;52.140;5.602;2023-09-18T00:29:08;25.15;;;20.67;;
35592;SDS011;64447;52.140;5.602;2023-09-18T00:31:33;23.98;;;20.88;;
35592;SDS011;64447;52.140;5.602;2023-09-18T00:33:59;23.10;;;20.48;;
35592;SDS011;64447;52.140;5.602;2023-09-18T00:36:24;26.40;;;21.80;;
35592;SDS011;64447;52.140;5.602;2023-09-18T00:38:50;25.00;;;22.08;;
35592;SDS011;64447;52.140;5.602;2023-09-18T00:44:37;27.30;;;21.15;;
35592;SDS011;64447;52.140;5.602;2023-09-18T00:47:03;21.25;;;18.55;;
35592;SDS011;64447;52.140;5.602;2023-09-18T00:49:28;23.42;;;20.30;;
35592;SDS011;64447;52.140;5.602;2023-09-18T00:51:54;21.05;;;18.80;;
35592;SDS011;64447;52.140;5.602;2023-09-18T00:54:20;21.83;;;18.92;;
35592;SDS011;64447;52.140;5.602;2023-09-18T00:56:46;26.88;;;22.23;;
35592;SDS011;64447;52.140;5.602;2023-09-18T00:59:13;26.48;;;22.75;;
35592;SDS011;64447;52.140;5.602;2023-09-18T01:01:40;24.90;;;22.05;;
35592;SDS011;64447;52.140;5.602;2023-09-18T01:04:07;25.65;;;20.30;;
35592;SDS011;64447;52.140;5.602;2023-09-18T01:06:32;25.52;;;21.48;;
35592;SDS011;64447;52.140;5.602;2023-09-18T01:08:58;23.38;;;20.25;;
35592;SDS011;64447;52.140;5.602;2023-09-18T01:15:02;25.13;;;22.42;;
35592;SDS011;64447;52.140;5.602;2023-09-18T01:17:35;24.63;;;21.92;;
35592;SDS011;64447;52.140;5.602;2023-09-18T01:20:03;26.98;;;23.55;;
35592;SDS011;64447;52.140;5.602;2023-09-18T01:22:30;24.20;;;21.55;;
35592;SDS011;64447;52.140;5.602;2023-09-18T01:24:57;23.92;;;21.42;;
35592;SDS011;64447;52.140;5.602;2023-09-18T01:27:23;25.92;;;23.10;;
35592;SDS011;64447;52.140;5.602;2023-09-18T01:29:48;23.52;;;20.20;;
35592;SDS011;64447;52.140;5.602;2023-09-18T01:32:14;25.65;;;22.70;;
35592;SDS011;64447;52.140;5.602;2023-09-18T01:34:41;26.25;;;21.83;;
35592;SDS011;64447;52.140;5.602;2023-09-18T01:37:11;21.95;;;19.05;;
35592;SDS011;64447;52.140;5.602;2023-09-18T01:39:37;25.45;;;21.42;;
35592;SDS011;64447;52.140;5.602;2023-09-18T01:42:05;22.85;;;19.80;;
35592;SDS011;64447;52.140;5.602;2023-09-18T01:44:32;25.42;;;22.45;;
35592;SDS011;64447;52.140;5.602;2023-09-18T01:46:58;28.13;;;23.60;;
35592;SDS011;64447;52.140;5.602;2023-09-18T01:49:33;28.92;;;22.73;;
35592;SDS011;64447;52.140;5.602;2023-09-18T01:52:03;25.58;;;22.33;;
35592;SDS011;64447;52.140;5.602;2023-09-18T01:54:30;24.95;;;22.27;;
35592;SDS011;64447;52.140;5.602;2023-09-18T01:56:56;26.98;;;22.98;;
35592;SDS011;64447;52.140;5.602;2023-09-18T01:59:22;25.75;;;21.75;;
35592;SDS011;64447;52.140;5.602;2023-09-18T02:01:49;29.30;;;23.42;;
35592;SDS011;64447;52.140;5.602;2023-09-18T02:04:16;25.55;;;22.05;;
35592;SDS011;64447;52.140;5.602;2023-09-18T02:06:42;29.27;;;24.00;;
35592;SDS011;64447;52.140;5.602;2023-09-18T02:09:08;26.98;;;23.50;;
35592;SDS011;64447;52.140;5.602;2023-09-18T02:14:55;28.13;;;23.35;;
35592;SDS011;64447;52.140;5.602;2023-09-18T02:17:23;32.47;;;23.75;;
35592;SDS011;64447;52.140;5.602;2023-09-18T02:19:49;29.60;;;24.48;;
35592;SDS011;64447;52.140;5.602;2023-09-18T02:22:14;32.58;;;26.08;;
35592;SDS011;64447;52.140;5.602;2023-09-18T02:24:40;31.05;;;24.10;;
35592;SDS011;64447;52.140;5.602;2023-09-18T02:27:06;29.33;;;24.10;;
35592;SDS011;64447;52.140;5.602;2023-09-18T02:29:32;30.75;;;23.88;;
35592;SDS011;64447;52.140;5.602;2023-09-18T02:31:57;23.83;;;21.10;;
35592;SDS011;64447;52.140;5.602;2023-09-18T02:34:23;31.85;;;25.20;;
35592;SDS011;64447;52.140;5.602;2023-09-18T02:36:48;26.13;;;22.17;;
35592;SDS011;64447;52.140;5.602;2023-09-18T02:39:14;29.75;;;22.92;;
35592;SDS011;64447;52.140;5.602;2023-09-18T02:45:02;25.60;;;22.10;;
35592;SDS011;64447;52.140;5.602;2023-09-18T02:47:27;26.15;;;23.35;;
35592;SDS011;64447;52.140;5.602;2023-09-18T02:49:53;28.55;;;22.40;;
35592;SDS011;64447;52.140;5.602;2023-09-18T02:52:19;27.23;;;22.70;;
35592;SDS011;64447;52.140;5.602;2023-09-18T02:54:44;28.27;;;22.60;;
35592;SDS011;64447;52.140;5.602;2023-09-18T02:57:10;31.30;;;24.02;;
35592;SDS011;64447;52.140;5.602;2023-09-18T02:59:35;32.22;;;25.35;;
35592;SDS011;64447;52.140;5.602;2023-09-18T03:02:01;28.50;;;21.90;;
35592;SDS011;64447;52.140;5.602;2023-09-18T03:04:27;29.50;;;23.33;;
35592;SDS011;64447;52.140;5.602;2023-09-18T03:06:53;32.45;;;24.63;;
35592;SDS011;64447;52.140;5.602;2023-09-18T03:09:19;30.20;;;23.80;;
35592;SDS011;64447;52.140;5.602;2023-09-18T03:15:08;28.52;;;21.42;;
35592;SDS011;64447;52.140;5.602;2023-09-18T03:17:34;25.30;;;21.38;;
35592;SDS011;64447;52.140;5.602;2023-09-18T03:19:59;27.83;;;21.02;;
35592;SDS011;64447;52.140;5.602;2023-09-18T03:22:25;26.75;;;22.63;;
35592;SDS011;64447;52.140;5.602;2023-09-18T03:24:50;23.92;;;20.23;;
35592;SDS011;64447;52.140;5.602;2023-09-18T03:27:16;23.67;;;19.30;;
35592;SDS011;64447;52.140;5.602;2023-09-18T03:29:42;26.35;;;20.98;;
35592;SDS011;64447;52.140;5.602;2023-09-18T03:32:07;22.13;;;18.73;;
35592;SDS011;64447;52.140;5.602;2023-09-18T03:34:37;25.48;;;20.33;;
35592;SDS011;64447;52.140;5.602;2023-09-18T03:37:03;25.85;;;21.10;;
35592;SDS011;64447;52.140;5.602;2023-09-18T03:39:28;23.15;;;18.70;;
35592;SDS011;64447;52.140;5.602;2023-09-18T03:45:16;25.65;;;21.40;;
35592;SDS011;64447;52.140;5.602;2023-09-18T03:47:43;26.98;;;20.90;;
35592;SDS011;64447;52.140;5.602;2023-09-18T03:50:10;25.63;;;20.95;;
35592;SDS011;64447;52.140;5.602;2023-09-18T03:52:37;25.40;;;21.13;;
35592;SDS011;64447;52.140;5.602;2023-09-18T03:55:06;25.95;;;21.27;;
35592;SDS011;64447;52.140;5.602;2023-09-18T03:57:33;26.30;;;20.10;;
35592;SDS011;64447;52.140;5.602;2023-09-18T03:59:59;25.30;;;21.77;;
35592;SDS011;64447;52.140;5.602;2023-09-18T04:02:25;25.67;;;20.25;;
35592;SDS011;64447;52.140;5.602;2023-09-18T04:04:51;22.52;;;18.75;;
35592;SDS011;64447;52.140;5.602;2023-09-18T04:07:18;25.23;;;19.80;;
35592;SDS011;64447;52.140;5.602;2023-09-18T04:09:44;27.38;;;21.63;;
35592;SDS011;64447;52.140;5.602;2023-09-18T04:15:31;28.90;;;22.95;;
35592;SDS011;64447;52.140;5.602;2023-09-18T04:17:57;37.38;;;25.83;;
35592;SDS011;64447;52.140;5.602;2023-09-18T04:20:23;38.22;;;26.85;;
35592;SDS011;64447;52.140;5.602;2023-09-18T04:22:59;35.95;;;26.33;;
35592;SDS011;64447;52.140;5.602;2023-09-18T04:25:45;39.85;;;28.30;;
35592;SDS011;64447;52.140;5.602;2023-09-18T04:28:11;32.13;;;25.70;;
35592;SDS011;64447;52.140;5.602;2023-09-18T04:30:37;35.30;;;26.23;;
35592;SDS011;64447;52.140;5.602;2023-09-18T04:33:03;36.72;;;27.75;;
35592;SDS011;64447;52.140;5.602;2023-09-18T04:35:29;39.00;;;27.45;;
35592;SDS011;64447;52.140;5.602;2023-09-18T04:37:56;35.78;;;25.92;;
35592;SDS011;64447;52.140;5.602;2023-09-18T04:40:23;42.53;;;28.75;;
35592;SDS011;64447;52.140;5.602;2023-09-18T04:42:49;36.63;;;25.90;;
35592;SDS011;64447;52.140;5.602;2023-09-18T04:45:15;30.52;;;24.90;;
35592;SDS011;64447;52.140;5.602;2023-09-18T04:47:41;33.67;;;25.40;;
35592;SDS011;64447;52.140;5.602;2023-09-18T04:50:07;30.08;;;23.70;;
35592;SDS011;64447;52.140;5.602;2023-09-18T04:52:33;36.55;;;27.13;;
35592;SDS011;64447;52.140;5.602;2023-09-18T04:54:59;37.97;;;26.92;;
35592;SDS011;64447;52.140;5.602;2023-09-18T04:57:24;37.97;;;26.77;;
35592;SDS011;64447;52.140;5.602;2023-09-18T04:59:50;39.10;;;28.77;;
35592;SDS011;64447;52.140;5.602;2023-09-18T05:02:15;42.10;;;28.88;;
35592;SDS011;64447;52.140;5.602;2023-09-18T05:04:41;37.95;;;27.35;;
35592;SDS011;64447;52.140;5.602;2023-09-18T05:07:07;38.97;;;27.55;;
35592;SDS011;64447;52.140;5.602;2023-09-18T05:09:33;40.25;;;28.40;;
35592;SDS011;64447;52.140;5.602;2023-09-18T05:15:21;39.22;;;28.88;;
35592;SDS011;64447;52.140;5.602;2023-09-18T05:17:47;44.42;;;28.85;;
35592;SDS011;64447;52.140;5.602;2023-09-18T05:20:17;50.80;;;32.47;;
35592;SDS011;64447;52.140;5.602;2023-09-18T05:22:43;39.65;;;27.55;;
35592;SDS011;64447;52.140;5.602;2023-09-18T05:25:10;32.42;;;23.73;;
35592;SDS011;64447;52.140;5.602;2023-09-18T05:27:36;36.00;;;24.52;;
35592;SDS011;64447;52.140;5.602;2023-09-18T05:30:25;28.95;;;21.75;;
35592;SDS011;64447;52.140;5.602;2023-09-18T05:32:52;35.10;;;23.30;;
35592;SDS011;64447;52.140;5.602;2023-09-18T05:35:22;26.67;;;20.48;;
35592;SDS011;64447;52.140;5.602;2023-09-18T05:37:48;28.15;;;20.35;;
35592;SDS011;64447;52.140;5.602;2023-09-18T05:40:14;24.98;;;17.90;;
35592;SDS011;64447;52.140;5.602;2023-09-18T05:42:41;21.85;;;16.13;;
35592;SDS011;64447;52.140;5.602;2023-09-18T05:45:08;24.05;;;17.63;;
35592;SDS011;64447;52.140;5.602;2023-09-18T05:47:35;20.85;;;16.05;;
35592;SDS011;64447;52.140;5.602;2023-09-18T05:50:01;21.33;;;16.25;;
35592;SDS011;64447;52.140;5.602;2023-09-18T05:52:29;27.35;;;19.27;;
35592;SDS011;64447;52.140;5.602;2023-09-18T05:54:54;23.48;;;18.15;;
35592;SDS011;64447;52.140;5.602;2023-09-18T06:00:42;23.65;;;18.77;;
35592;SDS011;64447;52.140;5.602;2023-09-18T06:03:07;27.65;;;20.88;;
35592;SDS011;64447;52.140;5.602;2023-09-18T06:05:34;27.48;;;21.58;;
35592;SDS011;64447;52.140;5.602;2023-09-18T06:08:00;29.95;;;22.25;;
35592;SDS011;64447;52.140;5.602;2023-09-18T06:10:26;33.53;;;24.20;;
35592;SDS011;64447;52.140;5.602;2023-09-18T06:12:51;28.45;;;21.67;;
35592;SDS011;64447;52.140;5.602;2023-09-18T06:15:17;26.17;;;20.40;;
35592;SDS011;64447;52.140;5.602;2023-09-18T06:17:44;28.52;;;20.98;;
35592;SDS011;64447;52.140;5.602;2023-09-18T06:20:10;27.17;;;22.27;;
35592;SDS011;64447;52.140;5.602;2023-09-18T06:22:37;33.42;;;22.85;;
35592;SDS011;64447;52.140;5.602;2023-09-18T06:25:07;32.08;;;23.10;;
35592;SDS011;64447;52.140;5.602;2023-09-18T06:30:59;29.98;;;22.83;;
35592;SDS011;64447;52.140;5.602;2023-09-18T06:33:25;27.48;;;21.98;;
35592;SDS011;64447;52.140;5.602;2023-09-18T06:35:50;26.25;;;21.42;;
35592;SDS011;64447;52.140;5.602;2023-09-18T06:38:17;28.33;;;21.10;;
35592;SDS011;64447;52.140;5.602;2023-09-18T06:40:51;28.27;;;20.58;;
35592;SDS011;64447;52.140;5.602;2023-09-18T06:43:18;27.05;;;21.27;;
35592;SDS011;64447;52.140;5.602;2023-09-18T06:45:43;32.38;;;22.23;;
35592;SDS011;64447;52.140;5.602;2023-09-18T06:48:09;27.05;;;21.80;;
35592;SDS011;64447;52.140;5.602;2023-09-18T06:50:34;25.83;;;20.25;;
35592;SDS011;64447;52.140;5.602;2023-09-18T06:53:01;27.80;;;20.85;;
35592;SDS011;64447;52.140;5.602;2023-09-18T06:55:27;24.95;;;21.30;;
35592;SDS011;64447;52.140;5.602;2023-09-18T07:01:14;27.10;;;21.83;;
35592;SDS011;64447;52.140;5.602;2023-09-18T07:03:40;26.92;;;20.23;;
35592;SDS011;64447;52.140;5.602;2023-09-18T07:06:06;28.02;;;20.50;;
35592;SDS011;64447;52.140;5.602;2023-09-18T07:08:31;30.13;;;19.75;;
35592;SDS011;64447;52.140;5.602;2023-09-18T07:10:58;24.10;;;18.77;;
35592;SDS011;64447;52.140;5.602;2023-09-18T07:13:24;24.65;;;18.98;;
35592;SDS011;64447;52.140;5.602;2023-09-18T07:15:49;26.30;;;18.98;;
35592;SDS011;64447;52.140;5.602;2023-09-18T07:18:15;24.40;;;19.30;;
35592;SDS011;64447;52.140;5.602;2023-09-18T07:20:41;25.13;;;18.40;;
35592;SDS011;64447;52.140;5.602;2023-09-18T07:23:08;26.85;;;20.00;;
35592;SDS011;64447;52.140;5.602;2023-09-18T07:25:34;19.85;;;16.92;;
35592;SDS011;64447;52.140;5.602;2023-09-18T07:31:21;22.25;;;17.20;;
35592;SDS011;64447;52.140;5.602;2023-09-18T07:33:47;21.45;;;16.60;;
35592;SDS011;64447;52.140;5.602;2023-09-18T07:36:13;23.88;;;16.52;;
35592;SDS011;64447;52.140;5.602;2023-09-18T07:38:40;20.85;;;15.50;;
35592;SDS011;64447;52.140;5.602;2023-09-18T07:41:08;21.30;;;15.93;;
35592;SDS011;64447;52.140;5.602;2023-09-18T07:43:34;19.73;;;15.48;;
35592;SDS011;64447;52.140;5.602;2023-09-18T07:45:59;19.90;;;16.20;;
35592;SDS011;64447;52.140;5.602;2023-09-18T07:48:26;21.08;;;15.10;;
35592;SDS011;64447;52.140;5.602;2023-09-18T07:50:52;18.25;;;14.27;;
35592;SDS011;64447;52.140;5.602;2023-09-18T07:53:19;18.30;;;14.45;;
35592;SDS011;64447;52.140;5.602;2023-09-18T07:55:45;17.77;;;14.52;;
35592;SDS011;64447;52.140;5.602;2023-09-18T08:01:32;23.85;;;14.70;;
35592;SDS011;64447;52.140;5.602;2023-09-18T08:03:59;15.18;;;13.10;;
35592;SDS011;64447;52.140;5.602;2023-09-18T08:06:25;14.05;;;12.60;;
35592;SDS011;64447;52.140;5.602;2023-09-18T08:08:51;15.00;;;12.75;;
35592;SDS011;64447;52.140;5.602;2023-09-18T08:11:16;13.90;;;12.07;;
35592;SDS011;64447;52.140;5.602;2023-09-18T08:13:43;17.92;;;12.98;;
35592;SDS011;64447;52.140;5.602;2023-09-18T08:16:09;14.15;;;12.13;;
35592;SDS011;64447;52.140;5.602;2023-09-18T08:18:35;15.20;;;11.65;;
35592;SDS011;64447;52.140;5.602;2023-09-18T08:21:00;14.88;;;11.50;;
35592;SDS011;64447;52.140;5.602;2023-09-18T08:23:26;14.45;;;11.15;;
35592;SDS011;64447;52.140;5.602;2023-09-18T08:25:52;13.82;;;10.73;;
35592;SDS011;64447;52.140;5.602;2023-09-18T08:31:44;11.35;;;9.95;;
35592;SDS011;64447;52.140;5.602;2023-09-18T08:34:10;12.95;;;10.32;;
35592;SDS011;64447;52.140;5.602;2023-09-18T08:36:35;13.45;;;10.70;;
35592;SDS011;64447;52.140;5.602;2023-09-18T08:39:01;15.50;;;10.35;;
35592;SDS011;64447;52.140;5.602;2023-09-18T08:41:31;11.82;;;10.25;;
35592;SDS011;64447;52.140;5.602;2023-09-18T08:44:01;12.05;;;9.45;;
35592;SDS011;64447;52.140;5.602;2023-09-18T08:46:31;10.02;;;9.13;;
35592;SDS011;64447;52.140;5.602;2023-09-18T08:48:59;11.38;;;9.70;;
35592;SDS011;64447;52.140;5.602;2023-09-18T08:51:26;10.48;;;9.13;;
35592;SDS011;64447;52.140;5.602;2023-09-18T08:53:53;8.90;;;8.05;;
35592;SDS011;64447;52.140;5.602;2023-09-18T08:56:19;11.85;;;7.82;;
35592;SDS011;64447;52.140;5.602;2023-09-18T08:58:47;10.15;;;7.97;;
35592;SDS011;64447;52.140;5.602;2023-09-18T09:03:39;9.73;;;7.80;;
35592;SDS011;64447;52.140;5.602;2023-09-18T09:06:06;8.32;;;7.45;;
35592;SDS011;64447;52.140;5.602;2023-09-18T09:08:34;9.52;;;7.43;;
35592;SDS011;64447;52.140;5.602;2023-09-18T09:11:00;9.13;;;6.95;;
35592;SDS011;64447;52.140;5.602;2023-09-18T09:16:48;7.85;;;6.18;;
35592;SDS011;64447;52.140;5.602;2023-09-18T09:19:18;9.60;;;5.95;;
35592;SDS011;64447;52.140;5.602;2023-09-18T09:21:52;9.98;;;6.47;;
35592;SDS011;64447;52.140;5.602;2023-09-18T09:24:19;7.95;;;6.63;;
35592;SDS011;64447;52.140;5.602;2023-09-18T09:27:05;6.78;;;5.88;;
35592;SDS011;64447;52.140;5.602;2023-09-18T09:29:30;11.32;;;6.30;;
35592;SDS011;64447;52.140;5.602;2023-09-18T09:37:02;5.88;;;5.07;;
35592;SDS011;64447;52.140;5.602;2023-09-18T09:39:29;7.90;;;5.22;;
35592;SDS011;64447;52.140;5.602;2023-09-18T09:41:55;7.07;;;5.70;;
35592;SDS011;64447;52.140;5.602;2023-09-18T09:44:25;8.48;;;5.00;;
35592;SDS011;64447;52.140;5.602;2023-09-18T09:46:51;6.93;;;5.03;;
35592;SDS011;64447;52.140;5.602;2023-09-18T09:49:16;6.10;;;4.88;;
35592;SDS011;64447;52.140;5.602;2023-09-18T09:51:45;6.50;;;5.13;;
35592;SDS011;64447;52.140;5.602;2023-09-18T09:54:11;4.75;;;4.10;;
35592;SDS011;64447;52.140;5.602;2023-09-18T09:56:49;6.22;;;4.03;;
35592;SDS011;64447;52.140;5.602;2023-09-18T10:03:32;6.90;;;4.60;;
35592;SDS011;64447;52.140;5.602;2023-09-18T10:05:58;6.20;;;4.68;;
35592;SDS011;64447;52.140;5.602;2023-09-18T10:08:25;5.65;;;4.53;;
35592;SDS011;64447;52.140;5.602;2023-09-18T10:10:53;5.85;;;4.63;;
35592;SDS011;64447;52.140;5.602;2023-09-18T10:16:01;5.50;;;3.80;;
35592;SDS011;64447;52.140;5.602;2023-09-18T10:24:04;7.70;;;3.92;;
35592;SDS011;64447;52.140;5.602;2023-09-18T10:26:32;5.93;;;4.30;;
35592;SDS011;64447;52.140;5.602;2023-09-18T10:29:03;4.40;;;3.45;;
35592;SDS011;64447;52.140;5.602;2023-09-18T10:31:34;4.18;;;3.72;;
35592;SDS011;64447;52.140;5.602;2023-09-18T10:34:02;4.32;;;3.90;;
35592;SDS011;64447;52.140;5.602;2023-09-18T10:36:30;6.13;;;4.70;;
35592;SDS011;64447;52.140;5.602;2023-09-18T10:38:56;6.20;;;5.15;;
35592;SDS011;64447;52.140;5.602;2023-09-18T10:41:25;7.55;;;6.07;;
35592;SDS011;64447;52.140;5.602;2023-09-18T10:43:53;8.13;;;7.25;;
35592;SDS011;64447;52.140;5.602;2023-09-18T10:46:19;11.82;;;7.38;;
35592;SDS011;64447;52.140;5.602;2023-09-18T10:48:45;8.55;;;7.60;;
35592;SDS011;64447;52.140;5.602;2023-09-18T10:51:12;8.85;;;7.95;;
35592;SDS011;64447;52.140;5.602;2023-09-18T10:53:39;8.35;;;7.55;;
35592;SDS011;64447;52.140;5.602;2023-09-18T10:56:05;9.32;;;8.43;;
35592;SDS011;64447;52.140;5.602;2023-09-18T10:58:32;10.27;;;8.77;;
35592;SDS011;64447;52.140;5.602;2023-09-18T11:01:04;10.95;;;9.30;;
35592;SDS011;64447;52.140;5.602;2023-09-18T11:03:31;13.35;;;11.00;;
35592;SDS011;64447;52.140;5.602;2023-09-18T11:06:06;10.57;;;9.48;;
35592;SDS011;64447;52.140;5.602;2023-09-18T11:08:35;12.40;;;11.10;;
35592;SDS011;64447;52.140;5.602;2023-09-18T11:11:10;12.95;;;11.60;;
35592;SDS011;64447;52.140;5.602;2023-09-18T11:13:44;12.50;;;11.27;;
35592;SDS011;64447;52.140;5.602;2023-09-18T11:16:18;16.50;;;12.40;;
35592;SDS011;64447;52.140;5.602;2023-09-18T11:18:51;13.77;;;12.20;;
35592;SDS011;64447;52.140;5.602;2023-09-18T11:21:18;12.82;;;11.63;;
35592;SDS011;64447;52.140;5.602;2023-09-18T11:23:48;12.63;;;11.25;;
35592;SDS011;64447;52.140;5.602;2023-09-18T11:26:43;12.70;;;11.05;;
35592;SDS011;64447;52.140;5.602;2023-09-18T11:29:12;13.07;;;10.98;;
35592;SDS011;64447;52.140;5.602;2023-09-18T11:31:43;12.65;;;11.40;;
35592;SDS011;64447;52.140;5.602;2023-09-18T11:34:14;18.27;;;12.85;;
35592;SDS011;64447;52.140;5.602;2023-09-18T11:36:51;13.60;;;11.95;;
35592;SDS011;64447;52.140;5.602;2023-09-18T11:39:33;13.20;;;11.77;;
35592;SDS011;64447;52.140;5.602;2023-09-18T11:42:10;13.48;;;11.15;;
35592;SDS011;64447;52.140;5.602;2023-09-18T11:45:18;13.15;;;11.85;;
35592;SDS011;64447;52.140;5.602;2023-09-18T11:47:43;12.55;;;10.95;;
35592;SDS011;64447;52.140;5.602;2023-09-18T11:50:11;12.05;;;10.80;;
35592;SDS011;64447;52.140;5.602;2023-09-18T11:52:37;11.52;;;10.35;;
35592;SDS011;64447;52.140;5.602;2023-09-18T11:55:05;12.98;;;10.90;;
35592;SDS011;64447;52.140;5.602;2023-09-18T12:00:53;12.07;;;9.05;;
35592;SDS011;64447;52.140;5.602;2023-09-18T12:03:20;8.35;;;7.32;;
35592;SDS011;64447;52.140;5.602;2023-09-18T12:06:01;9.35;;;6.97;;
35592;SDS011;64447;52.140;5.602;2023-09-18T12:08:30;9.05;;;6.60;;
35592;SDS011;64447;52.140;5.602;2023-09-18T12:10:57;7.40;;;5.75;;
35592;SDS011;64447;52.140;5.602;2023-09-18T12:16:45;11.05;;;5.97;;
35592;SDS011;64447;52.140;5.602;2023-09-18T12:19:16;8.02;;;6.13;;
35592;SDS011;64447;52.140;5.602;2023-09-18T12:21:42;7.88;;;6.18;;
35592;SDS011;64447;52.140;5.602;2023-09-18T12:24:20;7.93;;;5.20;;
35592;SDS011;64447;52.140;5.602;2023-09-18T12:26:47;8.48;;;4.93;;
35592;SDS011;64447;52.140;5.602;2023-09-18T12:32:38;9.90;;;5.35;;
35592;SDS011;64447;52.140;5.602;2023-09-18T12:35:07;6.53;;;5.18;;
35592;SDS011;64447;52.140;5.602;2023-09-18T12:37:34;6.43;;;4.55;;
35592;SDS011;64447;52.140;5.602;2023-09-18T12:40:00;9.73;;;6.10;;
35592;SDS011;64447;52.140;5.602;2023-09-18T12:42:26;6.20;;;5.60;;
35592;SDS011;64447;52.140;5.602;2023-09-18T12:48:56;8.10;;;5.80;;
35592;SDS011;64447;52.140;5.602;2023-09-18T12:51:28;6.13;;;5.53;;
35592;SDS011;64447;52.140;5.602;2023-09-18T12:54:02;6.50;;;5.88;;
35592;SDS011;64447;52.140;5.602;2023-09-18T12:56:31;11.75;;;6.80;;
35592;SDS011;64447;52.140;5.602;2023-09-18T13:02:19;6.82;;;6.20;;
35592;SDS011;64447;52.140;5.602;2023-09-18T13:04:55;7.85;;;6.85;;
35592;SDS011;64447;52.140;5.602;2023-09-18T13:07:22;7.68;;;6.13;;
35592;SDS011;64447;52.140;5.602;2023-09-18T13:10:02;7.88;;;5.57;;
35592;SDS011;64447;52.140;5.602;2023-09-18T13:12:45;7.20;;;5.20;;
35592;SDS011;64447;52.140;5.602;2023-09-18T13:18:34;6.20;;;4.57;;
35592;SDS011;64447;52.140;5.602;2023-09-18T13:21:00;7.00;;;4.63;;
35592;SDS011;64447;52.140;5.602;2023-09-18T13:23:34;5.93;;;4.20;;
35592;SDS011;64447;52.140;5.602;2023-09-18T13:26:00;5.05;;;4.35;;
35592;SDS011;64447;52.140;5.602;2023-09-18T13:28:28;8.95;;;4.72;;
35592;SDS011;64447;52.140;5.602;2023-09-18T13:30:55;4.88;;;4.35;;
35592;SDS011;64447;52.140;5.602;2023-09-18T13:33:23;8.80;;;4.90;;
35592;SDS011;64447;52.140;5.602;2023-09-18T13:35:50;6.10;;;4.47;;
35592;SDS011;64447;52.140;5.602;2023-09-18T13:38:17;6.25;;;4.20;;
35592;SDS011;64447;52.140;5.602;2023-09-18T13:40:44;5.40;;;4.25;;
35592;SDS011;64447;52.140;5.602;2023-09-18T13:43:12;5.03;;;3.72;;
35592;SDS011;64447;52.140;5.602;2023-09-18T13:45:40;5.35;;;3.97;;
35592;SDS011;64447;52.140;5.602;2023-09-18T13:48:06;6.25;;;3.90;;
35592;SDS011;64447;52.140;5.602;2023-09-18T13:50:33;5.32;;;3.72;;
35592;SDS011;64447;52.140;5.602;2023-09-18T13:52:59;4.05;;;3.50;;
35592;SDS011;64447;52.140;5.602;2023-09-18T13:55:25;5.70;;;3.80;;
35592;SDS011;64447;52.140;5.602;2023-09-18T13:57:51;6.85;;;3.53;;
35592;SDS011;64447;52.140;5.602;2023-09-18T14:03:38;4.97;;;3.75;;
35592;SDS011;64447;52.140;5.602;2023-09-18T14:06:06;5.85;;;3.50;;
35592;SDS011;64447;52.140;5.602;2023-09-18T14:08:32;4.28;;;3.33;;
35592;SDS011;64447;52.140;5.602;2023-09-18T14:10:58;5.40;;;3.58;;
35592;SDS011;64447;52.140;5.602;2023-09-18T14:13:24;5.63;;;3.90;;
35592;SDS011;64447;52.140;5.602;2023-09-18T14:15:49;6.05;;;3.67;;
35592;SDS011;64447;52.140;5.602;2023-09-18T14:18:15;5.40;;;4.20;;
35592;SDS011;64447;52.140;5.602;2023-09-18T14:20:41;4.28;;;3.70;;
35592;SDS011;64447;52.140;5.602;2023-09-18T14:23:07;5.97;;;3.60;;
35592;SDS011;64447;52.140;5.602;2023-09-18T14:25:32;4.28;;;3.22;;
35592;SDS011;64447;52.140;5.602;2023-09-18T14:27:58;5.38;;;3.33;;
35592;SDS011;64447;52.140;5.602;2023-09-18T14:33:46;4.75;;;3.30;;
35592;SDS011;64447;52.140;5.602;2023-09-18T14:36:12;5.28;;;3.45;;
35592;SDS011;64447;52.140;5.602;2023-09-18T14:38:37;3.53;;;3.20;;
35592;SDS011;64447;52.140;5.602;2023-09-18T14:41:05;4.50;;;2.78;;
35592;SDS011;64447;52.140;5.602;2023-09-18T14:43:32;5.03;;;3.35;;
35592;SDS011;64447;52.140;5.602;2023-09-18T14:45:57;6.40;;;3.60;;
35592;SDS011;64447;52.140;5.602;2023-09-18T14:48:23;5.35;;;3.40;;
35592;SDS011;64447;52.140;5.602;2023-09-18T14:50:55;4.15;;;3.17;;
35592;SDS011;64447;52.140;5.602;2023-09-18T14:53:22;3.72;;;3.03;;
35592;SDS011;64447;52.140;5.602;2023-09-18T14:55:48;4.90;;;3.42;;
35592;SDS011;64447;52.140;5.602;2023-09-18T14:58:14;5.43;;;2.88;;
35592;SDS011;64447;52.140;5.602;2023-09-18T15:04:01;5.15;;;3.08;;
35592;SDS011;64447;52.140;5.602;2023-09-18T15:06:27;6.72;;;2.85;;
35592;SDS011;64447;52.140;5.602;2023-09-18T15:08:54;6.40;;;3.10;;
35592;SDS011;64447;52.140;5.602;2023-09-18T15:11:19;6.07;;;2.90;;
35592;SDS011;64447;52.140;5.602;2023-09-18T15:13:45;4.38;;;3.10;;
35592;SDS011;64447;52.140;5.602;2023-09-18T15:16:11;4.65;;;2.90;;
35592;SDS011;64447;52.140;5.602;2023-09-18T15:18:37;6.03;;;2.90;;
35592;SDS011;64447;52.140;5.602;2023-09-18T15:21:04;9.23;;;4.65;;
35592;SDS011;64447;52.140;5.602;2023-09-18T15:23:30;9.57;;;4.57;;
35592;SDS011;64447;52.140;5.602;2023-09-18T15:25:55;6.25;;;3.92;;
35592;SDS011;64447;52.140;5.602;2023-09-18T15:28:24;5.93;;;3.50;;
35592;SDS011;64447;52.140;5.602;2023-09-18T15:34:14;4.78;;;2.95;;
35592;SDS011;64447;52.140;5.602;2023-09-18T15:36:41;3.28;;;2.55;;
35592;SDS011;64447;52.140;5.602;2023-09-18T15:39:07;5.63;;;1.85;;
35592;SDS011;64447;52.140;5.602;2023-09-18T15:41:33;2.10;;;1.60;;
35592;SDS011;64447;52.140;5.602;2023-09-18T15:43:59;1.65;;;1.48;;
35592;SDS011;64447;52.140;5.602;2023-09-18T15:46:25;2.63;;;1.70;;
35592;SDS011;64447;52.140;5.602;2023-09-18T15:48:51;3.92;;;1.77;;
35592;SDS011;64447;52.140;5.602;2023-09-18T15:51:16;4.15;;;1.73;;
35592;SDS011;64447;52.140;5.602;2023-09-18T15:53:43;4.78;;;2.20;;
35592;SDS011;64447;52.140;5.602;2023-09-18T15:56:09;2.45;;;1.98;;
35592;SDS011;64447;52.140;5.602;2023-09-18T15:58:35;3.40;;;2.30;;
35592;SDS011;64447;52.140;5.602;2023-09-18T16:04:23;3.85;;;1.75;;
35592;SDS011;64447;52.140;5.602;2023-09-18T16:06:50;3.03;;;1.88;;
35592;SDS011;64447;52.140;5.602;2023-09-18T16:09:15;3.58;;;2.05;;
35592;SDS011;64447;52.140;5.602;2023-09-18T16:11:41;3.90;;;2.30;;
35592;SDS011;64447;52.140;5.602;2023-09-18T16:14:07;3.05;;;1.85;;
35592;SDS011;64447;52.140;5.602;2023-09-18T16:16:32;2.72;;;2.05;;
35592;SDS011;64447;52.140;5.602;2023-09-18T16:18:59;5.43;;;2.13;;
35592;SDS011;64447;52.140;5.602;2023-09-18T16:21:25;2.65;;;1.90;;
35592;SDS011;64447;52.140;5.602;2023-09-18T16:23:51;2.45;;;1.90;;